Easterwood Field
KCLL : now visible

Airfield :











YOU CAN JOIN US ON...

 
LOGIN :

Register | Disclaimer

   EN    FR    IT 

 









Legend :    VFR   Marginal VFR   IFR   Intensive IFR   Very Intensive IFR
Visi :
Ceiling :
>= 8 km
>= 3000ft
5 to 8 km
1000 to 3000 ft
1500m to 5 km
500 to 1000 ft
800 to 1500m
200 to 500 ft
< 800m
< 200 ft
Symbols :   Thunderstorms  Fog  Heavy snow  Heavy precipitations  Wind > 20 kt






- Airport Elevation : 320 ft
- IATA code : CLL


KCLL - Easterwood Field

CURRENT METAR :
  • 142053Z 02007KT 3SM RA BR BKN008 BKN013 OVC039 07/06 A3029 RMK AO2 SLP256 P0017 60028 T00720056 55005

EXPIRED METARs :
  • 142016Z 01010KT 3SM +RA BR BKN009 BKN016 OVC039 07/06 A3028 RMK AO2 P0006 T00720056
  • 141953Z 36010KT 4SM RA BR BKN009 OVC014 07/06 A3028 RMK AO2 SLP253 P0008 T00720056
  • 141853Z 36010KT 7SM -RA BKN007 OVC012 07/06 A3029 RMK AO2 CIG 005V009 SLP258 P0003 T00720056

TAF KCLL
Valid from the 14 at 21:00 until the 15 at 18:00 UTC


142054Z 1421/1518 01007KT 3SM RA BR BKN006 BKN015 BKN030
FM142300 36005KT 5SM -DZ BR VCSH BKN010 BKN020
FM150300 36004KT P6SM BKN035
FM150500 35004KT P6SM SKC
FM150900 35005KT 5SM BR SKC
TEMPO 1512/1515 3SM BR BKN005
FM151600 01007KT P6SM SKC



MET'MAP, your aeronautical weather chart ! - Copyright ORBIFLY December 2007 - Disclaimer

ORBIFLY MET'MAP TEAM :

Programming & Development : Alexandra Zaïnal
Concept & Development : Baudouin d'Aumeries
Co-Development & Prog : Marc-Olivier Méhu
Technical & hardware support : Manuel Goepfert

Contact : metmap@orbifly.com




SOURCES & CREDITS :

   NOAA       Earth
Advisory